T-Com Croatia Speed Test Log

Averages  Max Speed    
1 to 25 of 10871** for Host T-Com Croatia
Time
Speed Size    User ConnectID  TestID   
9/7/14 12:52:49 pm 2.25 Mbps 282 kB/s 2.7 MB71539269644 HR T6pPSGe 
9/7/14 11:18:01 am 3.81 Mbps 476 kB/s 3.7 MB81775022972 HR 154yv8X 
9/7/14 10:16:07 am 987 kbps 123 kB/s 1.9 MB854104398887 HR efUsFPB 
9/7/14 10:15:27 am 6.77 Mbps 846 kB/s 8.5 MB81775022972 HR Sm3kduX 
9/7/14 10:09:02 am 14 kbps 2 kB/s 200 kB81774674128 HR vOaKHD6 
9/7/14 9:41:08 am 389 kbps 49 kB/s 256 kB8541167162888 HR aNJ7olE 
9/7/14 9:40:57 am 3.93 Mbps 491 kB/s 2.8 MB8541167162888 HR 8RFTDt7 
9/7/14 8:09:27 am 285 kbps 36 kB/s 256 kB7154331826 HR F8kp9tb 
9/7/14 8:09:16 am 3.3 Mbps 412 kB/s 2.7 MB7154331826 HR Xvhknys 
9/7/14 6:40:54 am 3.1 Mbps 387 kB/s 2 MB817748054980 HR zfc4JEM 
9/7/14 3:16:40 am 9.15 Mbps 1.14 MB/s 8.8 MB854162716669 HR xtyD5G4 
9/7/14 3:16:17 am 7.26 Mbps 907 kB/s 8.8 MB854162716669 HR j5Hwyc8 
9/7/14 3:16:02 am 7.37 Mbps 921 kB/s 8.8 MB854162716669 HR PQ4gBEV 
9/7/14 3:15:44 am 9.14 Mbps 1.14 MB/s 8.8 MB854162716669 HR BAOiMm4 
9/7/14 3:10:42 am 2.44 Mbps 306 kB/s 2 MB854162716669 HR EHdO2rL 
9/6/14 8:33:47 pm 93 kbps 12 kB/s 256 kB8541634306175 HR cN5VRdB 
9/6/14 8:33:08 pm 197 kbps 25 kB/s 256 kB8541634306175 HR WXujkZP 
9/6/14 6:37:59 pm 9.52 Mbps 1.19 MB/s 17 MB8541177069886 HR PVGT6E8 
9/6/14 6:25:09 pm 375 kbps 47 kB/s 256 kB8541441176030 HR yoDIlq2 
9/6/14 6:24:59 pm 9.42 Mbps 1.18 MB/s 10.3 MB8541441176030 HR CSVZ157 
9/6/14 6:17:34 pm 165 kbps 21 kB/s 256 kB854125598992 HR RKzi0jX 
9/6/14 6:14:17 pm 369 kbps 46 kB/s 256 kB854163418023 HR Fgn18fS 
9/6/14 6:14:06 pm 3.9 Mbps 487 kB/s 3 MB854163418023 HR SHzVJas 
9/6/14 6:13:09 pm 118 kbps 15 kB/s 256 kB854125598992 HR 1FSc7Ci 
9/6/14 6:12:16 pm 126 kbps 16 kB/s 256 kB854125598992 HR JDsngya 
  
** Partial Results: The most recent results have been displayed. Results over 50 Mbps are highlighted.
Graphed results calculation
Displaying Internet Speed Test results for Host T-Com Croatia

Minimum

Min 0.01 Mbps : 0.09 Mbps

Average [show Median]

Average 4.15 Mbps : 0.3 Mbps

Maximum

Max 9.52 Mbps : 0.39 Mbps

Minimum

Minimum: 0.01 Mbps : 0.09 Mbps

Average

Average: 4.15 Mbps : 0.3 Mbps [show Median]

Maximum

Maximum: 9.52 Mbps : 0.39 Mbps